sensor_id;sensor_type;location;lat;lon;timestamp;temperature;humidity
19483;DHT22;9882;51.166;6.992;2022-11-02T05:00:36;12.50;99.90
19483;DHT22;9882;51.166;6.992;2022-11-02T05:03:08;12.50;99.90
19483;DHT22;9882;51.166;6.992;2022-11-02T05:05:38;12.50;99.90
19483;DHT22;9882;51.166;6.992;2022-11-02T05:08:06;12.50;99.90
19483;DHT22;9882;51.166;6.992;2022-11-02T05:10:36;12.50;99.90
19483;DHT22;9882;51.166;6.992;2022-11-02T05:13:06;12.50;99.90
19483;DHT22;9882;51.166;6.992;2022-11-02T05:15:39;12.60;99.90
19483;DHT22;9882;51.166;6.992;2022-11-02T05:18:08;12.60;99.90
19483;DHT22;9882;51.166;6.992;2022-11-02T05:20:39;12.60;99.90
19483;DHT22;9882;51.166;6.992;2022-11-02T05:23:08;12.60;99.90
19483;DHT22;9882;51.166;6.992;2022-11-02T05:25:36;12.60;99.90
19483;DHT22;9882;51.166;6.992;2022-11-02T05:28:05;12.60;99.90
19483;DHT22;9882;51.166;6.992;2022-11-02T05:30:34;12.60;99.90
19483;DHT22;9882;51.166;6.992;2022-11-02T05:33:04;12.60;99.90
19483;DHT22;9882;51.166;6.992;2022-11-02T05:35:32;12.50;99.90
19483;DHT22;9882;51.166;6.992;2022-11-02T05:38:01;12.50;99.90
19483;DHT22;9882;51.166;6.992;2022-11-02T05:40:30;12.50;99.90
19483;DHT22;9882;51.166;6.992;2022-11-02T05:43:00;12.60;99.90
19483;DHT22;9882;51.166;6.992;2022-11-02T05:45:30;12.50;99.90
19483;DHT22;9882;51.166;6.992;2022-11-02T05:47:59;12.50;99.90
19483;DHT22;9882;51.166;6.992;2022-11-02T05:50:29;12.60;99.90
19483;DHT22;9882;51.166;6.992;2022-11-02T05:53:00;12.50;99.90
19483;DHT22;9882;51.166;6.992;2022-11-02T05:55:29;12.50;99.90
19483;DHT22;9882;51.166;6.992;2022-11-02T05:57:58;12.60;99.90
19483;DHT22;9882;51.166;6.992;2022-11-02T06:00:26;12.60;99.90
19483;DHT22;9882;51.166;6.992;2022-11-02T06:02:55;12.50;99.90
19483;DHT22;9882;51.166;6.992;2022-11-02T06:05:25;12.50;99.90
19483;DHT22;9882;51.166;6.992;2022-11-02T06:07:58;12.50;99.90
19483;DHT22;9882;51.166;6.992;2022-11-02T06:10:27;12.50;99.90
19483;DHT22;9882;51.166;6.992;2022-11-02T06:12:56;12.50;99.90
19483;DHT22;9882;51.166;6.992;2022-11-02T06:15:26;12.60;99.90
19483;DHT22;9882;51.166;6.992;2022-11-02T06:17:54;12.60;99.90
19483;DHT22;9882;51.166;6.992;2022-11-02T06:20:23;12.50;99.90
19483;DHT22;9882;51.166;6.992;2022-11-02T06:22:51;12.50;99.90
19483;DHT22;9882;51.166;6.992;2022-11-02T06:25:21;12.50;99.90
19483;DHT22;9882;51.166;6.992;2022-11-02T06:27:50;12.40;99.90
19483;DHT22;9882;51.166;6.992;2022-11-02T06:30:20;12.40;99.90
19483;DHT22;9882;51.166;6.992;2022-11-02T06:32:50;12.40;99.90
19483;DHT22;9882;51.166;6.992;2022-11-02T06:35:22;12.30;99.90
19483;DHT22;9882;51.166;6.992;2022-11-02T06:37:51;12.40;99.90
19483;DHT22;9882;51.166;6.992;2022-11-02T06:40:20;12.40;99.90
19483;DHT22;9882;51.166;6.992;2022-11-02T06:42:54;12.40;99.90
19483;DHT22;9882;51.166;6.992;2022-11-02T06:45:29;12.40;99.90
19483;DHT22;9882;51.166;6.992;2022-11-02T06:47:58;12.30;99.90
19483;DHT22;9882;51.166;6.992;2022-11-02T06:50:26;12.40;99.90
19483;DHT22;9882;51.166;6.992;2022-11-02T06:52:55;12.50;99.90
19483;DHT22;9882;51.166;6.992;2022-11-02T06:55:25;12.40;99.90
19483;DHT22;9882;51.166;6.992;2022-11-02T06:57:54;12.50;99.90
19483;DHT22;9882;51.166;6.992;2022-11-02T07:00:23;12.40;99.90
19483;DHT22;9882;51.166;6.992;2022-11-02T07:02:58;12.40;99.90
19483;DHT22;9882;51.166;6.992;2022-11-02T07:05:28;12.40;99.90
19483;DHT22;9882;51.166;6.992;2022-11-02T07:07:57;12.40;99.90
19483;DHT22;9882;51.166;6.992;2022-11-02T07:10:27;12.40;99.90
19483;DHT22;9882;51.166;6.992;2022-11-02T07:12:56;12.40;99.90
19483;DHT22;9882;51.166;6.992;2022-11-02T07:15:25;12.40;99.90
19483;DHT22;9882;51.166;6.992;2022-11-02T07:17:54;12.40;99.90
19483;DHT22;9882;51.166;6.992;2022-11-02T07:20:23;12.40;99.90
19483;DHT22;9882;51.166;6.992;2022-11-02T07:22:52;12.40;99.90
19483;DHT22;9882;51.166;6.992;2022-11-02T07:25:21;12.40;99.90
19483;DHT22;9882;51.166;6.992;2022-11-02T07:27:51;12.40;99.90
19483;DHT22;9882;51.166;6.992;2022-11-02T07:30:19;12.40;99.90
19483;DHT22;9882;51.166;6.992;2022-11-02T07:32:48;12.40;99.90
19483;DHT22;9882;51.166;6.992;2022-11-02T07:35:17;12.40;99.90
19483;DHT22;9882;51.166;6.992;2022-11-02T07:37:54;12.50;99.90
19483;DHT22;9882;51.166;6.992;2022-11-02T07:40:23;12.40;99.90
19483;DHT22;9882;51.166;6.992;2022-11-02T07:42:53;12.40;99.90
19483;DHT22;9882;51.166;6.992;2022-11-02T07:45:30;12.30;99.90
19483;DHT22;9882;51.166;6.992;2022-11-02T07:47:59;12.40;99.90
19483;DHT22;9882;51.166;6.992;2022-11-02T07:50:28;12.30;99.90
19483;DHT22;9882;51.166;6.992;2022-11-02T07:52:57;12.40;99.90
19483;DHT22;9882;51.166;6.992;2022-11-02T07:55:28;12.30;99.90
19483;DHT22;9882;51.166;6.992;2022-11-02T07:57:59;12.30;99.90
19483;DHT22;9882;51.166;6.992;2022-11-02T08:00:31;12.30;99.90
19483;DHT22;9882;51.166;6.992;2022-11-02T08:03:02;12.30;99.90
19483;DHT22;9882;51.166;6.992;2022-11-02T08:05:33;12.40;99.90
19483;DHT22;9882;51.166;6.992;2022-11-02T08:08:04;12.40;99.90
19483;DHT22;9882;51.166;6.992;2022-11-02T08:10:34;12.40;99.90
19483;DHT22;9882;51.166;6.992;2022-11-02T08:13:05;12.30;99.90
19483;DHT22;9882;51.166;6.992;2022-11-02T08:15:33;12.30;99.90
19483;DHT22;9882;51.166;6.992;2022-11-02T08:18:03;12.30;99.90
19483;DHT22;9882;51.166;6.992;2022-11-02T08:20:33;12.30;99.90
19483;DHT22;9882;51.166;6.992;2022-11-02T08:23:03;12.30;99.90
19483;DHT22;9882;51.166;6.992;2022-11-02T08:25:34;12.30;99.90
19483;DHT22;9882;51.166;6.992;2022-11-02T08:28:05;12.40;99.90
19483;DHT22;9882;51.166;6.992;2022-11-02T08:30:34;12.30;99.90
19483;DHT22;9882;51.166;6.992;2022-11-02T08:33:03;12.30;99.90
19483;DHT22;9882;51.166;6.992;2022-11-02T08:35:32;12.30;99.90
19483;DHT22;9882;51.166;6.992;2022-11-02T08:38:03;12.40;99.90
19483;DHT22;9882;51.166;6.992;2022-11-02T08:40:33;12.40;99.90
19483;DHT22;9882;51.166;6.992;2022-11-02T08:43:05;12.50;99.90
19483;DHT22;9882;51.166;6.992;2022-11-02T08:45:35;12.40;99.90
19483;DHT22;9882;51.166;6.992;2022-11-02T08:48:24;12.40;99.90
19483;DHT22;9882;51.166;6.992;2022-11-02T08:50:53;12.50;99.90
19483;DHT22;9882;51.166;6.992;2022-11-02T08:53:22;12.50;99.90
19483;DHT22;9882;51.166;6.992;2022-11-02T08:55:51;12.50;99.90
19483;DHT22;9882;51.166;6.992;2022-11-02T08:58:20;12.50;99.90
19483;DHT22;9882;51.166;6.992;2022-11-02T09:00:51;12.50;99.90
19483;DHT22;9882;51.166;6.992;2022-11-02T09:03:20;12.50;99.90
19483;DHT22;9882;51.166;6.992;2022-11-02T09:05:56;12.60;99.90
19483;DHT22;9882;51.166;6.992;2022-11-02T09:08:25;12.60;99.90
19483;DHT22;9882;51.166;6.992;2022-11-02T09:10:57;12.50;99.90
19483;DHT22;9882;51.166;6.992;2022-11-02T09:13:28;12.60;99.90
19483;DHT22;9882;51.166;6.992;2022-11-02T09:15:57;12.60;99.90
19483;DHT22;9882;51.166;6.992;2022-11-02T09:18:27;12.50;99.90
19483;DHT22;9882;51.166;6.992;2022-11-02T09:20:55;12.60;99.90
19483;DHT22;9882;51.166;6.992;2022-11-02T09:23:24;12.60;99.90
19483;DHT22;9882;51.166;6.992;2022-11-02T09:25:52;12.70;99.90
19483;DHT22;9882;51.166;6.992;2022-11-02T09:28:21;12.70;99.90
19483;DHT22;9882;51.166;6.992;2022-11-02T09:30:51;12.70;99.90
19483;DHT22;9882;51.166;6.992;2022-11-02T09:33:20;12.70;99.90
19483;DHT22;9882;51.166;6.992;2022-11-02T09:35:49;12.60;99.90
19483;DHT22;9882;51.166;6.992;2022-11-02T09:38:17;12.60;99.90
19483;DHT22;9882;51.166;6.992;2022-11-02T09:40:52;12.60;99.90
19483;DHT22;9882;51.166;6.992;2022-11-02T09:43:35;12.60;99.90
19483;DHT22;9882;51.166;6.992;2022-11-02T09:46:10;12.70;99.90
19483;DHT22;9882;51.166;6.992;2022-11-02T09:48:43;12.60;99.90
19483;DHT22;9882;51.166;6.992;2022-11-02T09:51:15;12.70;99.90
19483;DHT22;9882;51.166;6.992;2022-11-02T09:53:54;12.70;99.90
19483;DHT22;9882;51.166;6.992;2022-11-02T09:56:23;12.60;99.90
19483;DHT22;9882;51.166;6.992;2022-11-02T09:58:57;12.70;99.90
19483;DHT22;9882;51.166;6.992;2022-11-02T10:01:36;12.80;99.90
19483;DHT22;9882;51.166;6.992;2022-11-02T10:04:22;12.80;99.90
19483;DHT22;9882;51.166;6.992;2022-11-02T10:07:01;12.90;99.90
19483;DHT22;9882;51.166;6.992;2022-11-02T10:09:33;12.80;99.90
19483;DHT22;9882;51.166;6.992;2022-11-02T10:12:07;12.90;99.90
19483;DHT22;9882;51.166;6.992;2022-11-02T10:14:38;12.90;99.90
19483;DHT22;9882;51.166;6.992;2022-11-02T10:17:15;13.00;99.90
19483;DHT22;9882;51.166;6.992;2022-11-02T10:19:48;12.90;99.90
19483;DHT22;9882;51.166;6.992;2022-11-02T10:22:21;12.90;99.90
19483;DHT22;9882;51.166;6.992;2022-11-02T10:24:50;12.80;99.90
19483;DHT22;9882;51.166;6.992;2022-11-02T10:27:24;12.90;99.90
19483;DHT22;9882;51.166;6.992;2022-11-02T10:29:57;12.80;99.90
19483;DHT22;9882;51.166;6.992;2022-11-02T10:32:31;12.90;99.90
19483;DHT22;9882;51.166;6.992;2022-11-02T10:35:01;12.90;99.90
19483;DHT22;9882;51.166;6.992;2022-11-02T10:37:55;13.00;99.90
19483;DHT22;9882;51.166;6.992;2022-11-02T10:40:38;13.10;99.90
19483;DHT22;9882;51.166;6.992;2022-11-02T10:43:18;13.20;99.90
19483;DHT22;9882;51.166;6.992;2022-11-02T10:46:12;13.10;99.90
19483;DHT22;9882;51.166;6.992;2022-11-02T10:48:50;13.30;99.90
19483;DHT22;9882;51.166;6.992;2022-11-02T10:51:22;13.30;99.90
19483;DHT22;9882;51.166;6.992;2022-11-02T10:53:52;13.30;99.90
19483;DHT22;9882;51.166;6.992;2022-11-02T10:56:22;13.30;99.90
19483;DHT22;9882;51.166;6.992;2022-11-02T10:58:59;13.10;99.90
19483;DHT22;9882;51.166;6.992;2022-11-02T11:01:30;13.30;99.90
19483;DHT22;9882;51.166;6.992;2022-11-02T11:04:01;13.40;99.90
19483;DHT22;9882;51.166;6.992;2022-11-02T11:06:34;13.30;99.90
19483;DHT22;9882;51.166;6.992;2022-11-02T11:09:06;13.50;99.90
19483;DHT22;9882;51.166;6.992;2022-11-02T11:11:52;13.50;99.90
19483;DHT22;9882;51.166;6.992;2022-11-02T11:14:21;13.50;99.90
19483;DHT22;9882;51.166;6.992;2022-11-02T11:17:14;13.40;99.90
19483;DHT22;9882;51.166;6.992;2022-11-02T11:20:07;13.40;99.90
19483;DHT22;9882;51.166;6.992;2022-11-02T11:23:07;13.30;99.90
19483;DHT22;9882;51.166;6.992;2022-11-02T11:25:36;13.50;99.90
19483;DHT22;9882;51.166;6.992;2022-11-02T11:28:22;13.50;99.90
19483;DHT22;9882;51.166;6.992;2022-11-02T11:31:10;13.70;99.90
19483;DHT22;9882;51.166;6.992;2022-11-02T11:33:45;13.60;99.90
19483;DHT22;9882;51.166;6.992;2022-11-02T11:36:24;13.80;99.90
19483;DHT22;9882;51.166;6.992;2022-11-02T11:38:55;13.80;99.90
19483;DHT22;9882;51.166;6.992;2022-11-02T11:41:25;13.70;99.90
19483;DHT22;9882;51.166;6.992;2022-11-02T11:43:54;13.80;99.90
19483;DHT22;9882;51.166;6.992;2022-11-02T11:46:22;13.70;99.90
19483;DHT22;9882;51.166;6.992;2022-11-02T11:48:52;13.80;99.90
19483;DHT22;9882;51.166;6.992;2022-11-02T11:51:32;13.90;99.90
19483;DHT22;9882;51.166;6.992;2022-11-02T11:54:21;14.00;99.90
19483;DHT22;9882;51.166;6.992;2022-11-02T11:56:52;13.70;99.90
19483;DHT22;9882;51.166;6.992;2022-11-02T11:59:24;13.60;99.90
19483;DHT22;9882;51.166;6.992;2022-11-02T12:01:55;13.70;99.90
19483;DHT22;9882;51.166;6.992;2022-11-02T12:04:32;13.60;99.90
19483;DHT22;9882;51.166;6.992;2022-11-02T12:07:30;13.60;99.90
19483;DHT22;9882;51.166;6.992;2022-11-02T12:10:06;13.70;99.90
19483;DHT22;9882;51.166;6.992;2022-11-02T12:12:51;13.80;99.90
19483;DHT22;9882;51.166;6.992;2022-11-02T12:15:35;13.90;99.90
19483;DHT22;9882;51.166;6.992;2022-11-02T12:21:09;14.10;99.90
19483;DHT22;9882;51.166;6.992;2022-11-02T12:24:02;14.10;99.90
19483;DHT22;9882;51.166;6.992;2022-11-02T12:26:41;14.20;99.90
19483;DHT22;9882;51.166;6.992;2022-11-02T12:29:34;14.20;99.90
19483;DHT22;9882;51.166;6.992;2022-11-02T12:32:13;14.30;99.90
19483;DHT22;9882;51.166;6.992;2022-11-02T12:34:57;14.30;99.90
19483;DHT22;9882;51.166;6.992;2022-11-02T12:38:01;14.30;99.90
19483;DHT22;9882;51.166;6.992;2022-11-02T12:40:44;14.10;99.90
19483;DHT22;9882;51.166;6.992;2022-11-02T12:43:37;13.90;99.90
19483;DHT22;9882;51.166;6.992;2022-11-02T12:46:23;13.90;99.90
19483;DHT22;9882;51.166;6.992;2022-11-02T12:49:03;14.00;99.90
19483;DHT22;9882;51.166;6.992;2022-11-02T12:51:41;14.10;99.90
19483;DHT22;9882;51.166;6.992;2022-11-02T12:54:17;14.10;99.90
19483;DHT22;9882;51.166;6.992;2022-11-02T12:56:50;14.10;99.90
19483;DHT22;9882;51.166;6.992;2022-11-02T12:59:21;14.00;99.90
19483;DHT22;9882;51.166;6.992;2022-11-02T13:01:55;14.00;99.90
19483;DHT22;9882;51.166;6.992;2022-11-02T13:04:27;14.00;99.90
19483;DHT22;9882;51.166;6.992;2022-11-02T13:06:59;14.10;99.90
19483;DHT22;9882;51.166;6.992;2022-11-02T13:09:31;14.00;99.90
19483;DHT22;9882;51.166;6.992;2022-11-02T13:12:05;14.10;99.90
19483;DHT22;9882;51.166;6.992;2022-11-02T13:14:39;14.30;99.90
19483;DHT22;9882;51.166;6.992;2022-11-02T13:17:12;14.30;99.90
19483;DHT22;9882;51.166;6.992;2022-11-02T13:19:44;14.30;99.90
19483;DHT22;9882;51.166;6.992;2022-11-02T13:22:15;14.30;99.90
19483;DHT22;9882;51.166;6.992;2022-11-02T13:24:47;14.30;99.90
19483;DHT22;9882;51.166;6.992;2022-11-02T13:27:26;14.30;99.90
19483;DHT22;9882;51.166;6.992;2022-11-02T13:30:08;14.40;99.90
19483;DHT22;9882;51.166;6.992;2022-11-02T13:32:42;14.40;99.90
19483;DHT22;9882;51.166;6.992;2022-11-02T13:35:18;14.50;99.90
19483;DHT22;9882;51.166;6.992;2022-11-02T13:37:51;14.70;99.90
19483;DHT22;9882;51.166;6.992;2022-11-02T13:40:23;14.90;99.90
19483;DHT22;9882;51.166;6.992;2022-11-02T13:43:25;14.90;99.90
19483;DHT22;9882;51.166;6.992;2022-11-02T13:46:22;15.00;99.90
19483;DHT22;9882;51.166;6.992;2022-11-02T13:49:00;14.80;99.90
19483;DHT22;9882;51.166;6.992;2022-11-02T13:51:33;15.00;99.90
19483;DHT22;9882;51.166;6.992;2022-11-02T13:54:09;15.20;99.90
19483;DHT22;9882;51.166;6.992;2022-11-02T13:56:39;15.20;99.90
19483;DHT22;9882;51.166;6.992;2022-11-02T13:59:18;15.30;99.90
19483;DHT22;9882;51.166;6.992;2022-11-02T14:01:50;15.50;99.90
19483;DHT22;9882;51.166;6.992;2022-11-02T14:04:20;15.70;99.90
19483;DHT22;9882;51.166;6.992;2022-11-02T14:06:51;15.60;99.90
19483;DHT22;9882;51.166;6.992;2022-11-02T14:09:27;16.00;99.90
19483;DHT22;9882;51.166;6.992;2022-11-02T14:12:27;16.00;99.90
19483;DHT22;9882;51.166;6.992;2022-11-02T14:18:29;15.90;99.90
19483;DHT22;9882;51.166;6.992;2022-11-02T14:20:58;16.20;99.90
19483;DHT22;9882;51.166;6.992;2022-11-02T14:23:47;16.10;99.90
19483;DHT22;9882;51.166;6.992;2022-11-02T14:26:30;15.70;99.90
19483;DHT22;9882;51.166;6.992;2022-11-02T14:29:04;15.30;99.90
19483;DHT22;9882;51.166;6.992;2022-11-02T14:31:59;15.10;99.90
19483;DHT22;9882;51.166;6.992;2022-11-02T14:34:43;15.00;99.90
19483;DHT22;9882;51.166;6.992;2022-11-02T14:37:40;14.90;99.90
19483;DHT22;9882;51.166;6.992;2022-11-02T14:40:19;15.00;99.90
19483;DHT22;9882;51.166;6.992;2022-11-02T14:45:55;15.20;99.90
19483;DHT22;9882;51.166;6.992;2022-11-02T14:48:30;15.70;99.90
19483;DHT22;9882;51.166;6.992;2022-11-02T14:51:01;15.60;99.90
19483;DHT22;9882;51.166;6.992;2022-11-02T14:53:33;15.40;99.90
19483;DHT22;9882;51.166;6.992;2022-11-02T14:56:03;14.90;99.90
19483;DHT22;9882;51.166;6.992;2022-11-02T14:58:33;14.80;99.90
19483;DHT22;9882;51.166;6.992;2022-11-02T15:01:03;14.70;99.90
19483;DHT22;9882;51.166;6.992;2022-11-02T15:03:41;14.70;99.90
19483;DHT22;9882;51.166;6.992;2022-11-02T15:06:15;14.70;99.90
19483;DHT22;9882;51.166;6.992;2022-11-02T15:08:51;14.70;99.90
19483;DHT22;9882;51.166;6.992;2022-11-02T15:11:42;14.50;99.90
19483;DHT22;9882;51.166;6.992;2022-11-02T15:17:49;14.60;99.90
19483;DHT22;9882;51.166;6.992;2022-11-02T15:20:30;14.50;99.90
19483;DHT22;9882;51.166;6.992;2022-11-02T15:23:13;14.50;99.90
19483;DHT22;9882;51.166;6.992;2022-11-02T15:25:50;14.40;99.90
19483;DHT22;9882;51.166;6.992;2022-11-02T15:28:22;14.30;99.90
19483;DHT22;9882;51.166;6.992;2022-11-02T15:30:54;14.30;99.90
19483;DHT22;9882;51.166;6.992;2022-11-02T15:33:33;14.30;99.90
19483;DHT22;9882;51.166;6.992;2022-11-02T15:36:07;14.40;99.90
19483;DHT22;9882;51.166;6.992;2022-11-02T15:38:39;14.30;99.90
19483;DHT22;9882;51.166;6.992;2022-11-02T15:41:17;14.40;99.90
19483;DHT22;9882;51.166;6.992;2022-11-02T15:44:03;14.30;99.90
19483;DHT22;9882;51.166;6.992;2022-11-02T15:46:41;14.40;99.90
19483;DHT22;9882;51.166;6.992;2022-11-02T15:49:24;14.30;99.90
19483;DHT22;9882;51.166;6.992;2022-11-02T15:52:01;14.30;99.90
19483;DHT22;9882;51.166;6.992;2022-11-02T15:54:45;14.40;99.90
19483;DHT22;9882;51.166;6.992;2022-11-02T15:57:22;14.40;99.90
19483;DHT22;9882;51.166;6.992;2022-11-02T16:00:12;14.30;99.90
19483;DHT22;9882;51.166;6.992;2022-11-02T16:02:44;14.40;99.90
19483;DHT22;9882;51.166;6.992;2022-11-02T16:05:19;14.40;99.90
19483;DHT22;9882;51.166;6.992;2022-11-02T16:07:52;14.40;99.90
19483;DHT22;9882;51.166;6.992;2022-11-02T16:10:36;14.30;99.90
19483;DHT22;9882;51.166;6.992;2022-11-02T16:13:12;14.30;99.90
19483;DHT22;9882;51.166;6.992;2022-11-02T16:15:44;14.20;99.90
19483;DHT22;9882;51.166;6.992;2022-11-02T16:18:33;14.10;99.90
19483;DHT22;9882;51.166;6.992;2022-11-02T16:21:05;14.10;99.90
19483;DHT22;9882;51.166;6.992;2022-11-02T16:23:38;13.90;99.90
19483;DHT22;9882;51.166;6.992;2022-11-02T16:26:14;13.90;99.90
19483;DHT22;9882;51.166;6.992;2022-11-02T16:28:47;13.90;99.90
19483;DHT22;9882;51.166;6.992;2022-11-02T16:31:19;13.90;99.90
19483;DHT22;9882;51.166;6.992;2022-11-02T16:33:49;13.80;99.90
19483;DHT22;9882;51.166;6.992;2022-11-02T16:36:20;13.80;99.90
19483;DHT22;9882;51.166;6.992;2022-11-02T16:38:57;13.60;99.90
19483;DHT22;9882;51.166;6.992;2022-11-02T16:41:27;13.60;99.90
19483;DHT22;9882;51.166;6.992;2022-11-02T16:43:59;13.70;99.90
19483;DHT22;9882;51.166;6.992;2022-11-02T16:46:29;13.90;99.90
19483;DHT22;9882;51.166;6.992;2022-11-02T16:49:16;13.80;99.90
19483;DHT22;9882;51.166;6.992;2022-11-02T16:51:48;13.80;99.90
19483;DHT22;9882;51.166;6.992;2022-11-02T16:54:39;14.00;99.90
19483;DHT22;9882;51.166;6.992;2022-11-02T16:57:14;13.80;99.90
19483;DHT22;9882;51.166;6.992;2022-11-02T16:59:49;14.00;99.90
19483;DHT22;9882;51.166;6.992;2022-11-02T17:02:30;13.80;99.90
19483;DHT22;9882;51.166;6.992;2022-11-02T17:04:59;13.90;99.90
19483;DHT22;9882;51.166;6.992;2022-11-02T17:07:30;13.90;99.90
19483;DHT22;9882;51.166;6.992;2022-11-02T17:10:03;14.10;99.90
19483;DHT22;9882;51.166;6.992;2022-11-02T17:12:34;14.10;99.90
19483;DHT22;9882;51.166;6.992;2022-11-02T17:15:13;14.20;99.90
19483;DHT22;9882;51.166;6.992;2022-11-02T17:17:42;14.10;99.90
19483;DHT22;9882;51.166;6.992;2022-11-02T17:20:20;14.30;99.90
19483;DHT22;9882;51.166;6.992;2022-11-02T17:22:53;14.30;99.90
19483;DHT22;9882;51.166;6.992;2022-11-02T17:25:25;14.40;99.90
19483;DHT22;9882;51.166;6.992;2022-11-02T17:27:55;14.40;99.90
19483;DHT22;9882;51.166;6.992;2022-11-02T17:30:41;14.30;99.90
19483;DHT22;9882;51.166;6.992;2022-11-02T17:33:31;14.30;99.90
19483;DHT22;9882;51.166;6.992;2022-11-02T17:36:04;14.00;99.90
19483;DHT22;9882;51.166;6.992;2022-11-02T17:38:33;14.20;99.90
19483;DHT22;9882;51.166;6.992;2022-11-02T17:41:03;14.10;99.90
19483;DHT22;9882;51.166;6.992;2022-11-02T17:43:53;14.20;99.90
19483;DHT22;9882;51.166;6.992;2022-11-02T17:46:20;14.30;99.90
19483;DHT22;9882;51.166;6.992;2022-11-02T17:48:49;14.30;99.90
19483;DHT22;9882;51.166;6.992;2022-11-02T17:51:19;14.30;99.90
19483;DHT22;9882;51.166;6.992;2022-11-02T17:53:49;14.30;99.90
19483;DHT22;9882;51.166;6.992;2022-11-02T17:56:19;14.30;99.90
19483;DHT22;9882;51.166;6.992;2022-11-02T17:58:47;14.20;99.90
19483;DHT22;9882;51.166;6.992;2022-11-02T18:01:17;14.20;99.90
19483;DHT22;9882;51.166;6.992;2022-11-02T18:03:45;14.10;99.90
19483;DHT22;9882;51.166;6.992;2022-11-02T18:06:14;14.00;99.90
19483;DHT22;9882;51.166;6.992;2022-11-02T18:08:42;14.00;99.90
19483;DHT22;9882;51.166;6.992;2022-11-02T18:11:30;14.00;99.90
19483;DHT22;9882;51.166;6.992;2022-11-02T18:13:58;14.00;99.90
19483;DHT22;9882;51.166;6.992;2022-11-02T18:16:28;13.90;99.90
19483;DHT22;9882;51.166;6.992;2022-11-02T18:18:56;13.80;99.90
19483;DHT22;9882;51.166;6.992;2022-11-02T18:21:25;13.80;99.90
19483;DHT22;9882;51.166;6.992;2022-11-02T18:23:54;13.70;99.90
19483;DHT22;9882;51.166;6.992;2022-11-02T18:26:25;13.80;99.90
19483;DHT22;9882;51.166;6.992;2022-11-02T18:28:55;13.90;99.90
19483;DHT22;9882;51.166;6.992;2022-11-02T18:31:24;13.40;99.90
19483;DHT22;9882;51.166;6.992;2022-11-02T18:33:52;13.40;99.90
19483;DHT22;9882;51.166;6.992;2022-11-02T18:36:23;13.50;99.90
19483;DHT22;9882;51.166;6.992;2022-11-02T18:38:51;13.40;99.90
19483;DHT22;9882;51.166;6.992;2022-11-02T18:41:20;13.50;99.90
19483;DHT22;9882;51.166;6.992;2022-11-02T18:43:58;13.30;99.90
19483;DHT22;9882;51.166;6.992;2022-11-02T18:46:33;13.50;99.90
19483;DHT22;9882;51.166;6.992;2022-11-02T18:49:01;13.30;99.90
19483;DHT22;9882;51.166;6.992;2022-11-02T18:51:30;13.50;99.90
19483;DHT22;9882;51.166;6.992;2022-11-02T18:54:00;13.40;99.90
19483;DHT22;9882;51.166;6.992;2022-11-02T18:56:29;13.30;99.90
19483;DHT22;9882;51.166;6.992;2022-11-02T18:58:59;13.30;99.90
19483;DHT22;9882;51.166;6.992;2022-11-02T19:01:28;13.30;99.90
19483;DHT22;9882;51.166;6.992;2022-11-02T19:03:57;13.40;99.90
19483;DHT22;9882;51.166;6.992;2022-11-02T19:06:27;13.20;99.90
19483;DHT22;9882;51.166;6.992;2022-11-02T19:09:15;13.20;99.90
19483;DHT22;9882;51.166;6.992;2022-11-02T19:11:50;13.10;99.90
19483;DHT22;9882;51.166;6.992;2022-11-02T19:14:22;13.00;99.90
19483;DHT22;9882;51.166;6.992;2022-11-02T19:16:51;12.90;99.90
19483;DHT22;9882;51.166;6.992;2022-11-02T19:19:19;13.10;99.90
19483;DHT22;9882;51.166;6.992;2022-11-02T19:21:48;13.10;99.90
19483;DHT22;9882;51.166;6.992;2022-11-02T19:24:17;13.10;99.90
19483;DHT22;9882;51.166;6.992;2022-11-02T19:26:47;13.10;99.90
19483;DHT22;9882;51.166;6.992;2022-11-02T19:29:16;13.00;99.90
19483;DHT22;9882;51.166;6.992;2022-11-02T19:31:46;13.00;99.90
19483;DHT22;9882;51.166;6.992;2022-11-02T19:34:15;12.80;99.90
19483;DHT22;9882;51.166;6.992;2022-11-02T19:36:43;12.60;99.90
19483;DHT22;9882;51.166;6.992;2022-11-02T19:39:12;12.80;99.90
19483;DHT22;9882;51.166;6.992;2022-11-02T19:41:40;12.90;99.90
19483;DHT22;9882;51.166;6.992;2022-11-02T19:44:09;12.90;99.90
19483;DHT22;9882;51.166;6.992;2022-11-02T19:46:37;13.00;99.90
19483;DHT22;9882;51.166;6.992;2022-11-02T19:49:07;12.90;99.90
19483;DHT22;9882;51.166;6.992;2022-11-02T19:51:36;12.70;99.90
19483;DHT22;9882;51.166;6.992;2022-11-02T19:54:04;12.70;99.90
19483;DHT22;9882;51.166;6.992;2022-11-02T19:56:34;12.70;99.90
19483;DHT22;9882;51.166;6.992;2022-11-02T19:59:04;12.70;99.90
19483;DHT22;9882;51.166;6.992;2022-11-02T20:01:34;12.50;99.90
19483;DHT22;9882;51.166;6.992;2022-11-02T20:04:03;12.60;99.90
19483;DHT22;9882;51.166;6.992;2022-11-02T20:06:35;12.50;99.90
19483;DHT22;9882;51.166;6.992;2022-11-02T20:09:05;12.40;99.90
19483;DHT22;9882;51.166;6.992;2022-11-02T20:11:34;12.50;99.90
19483;DHT22;9882;51.166;6.992;2022-11-02T20:14:06;12.40;99.90
19483;DHT22;9882;51.166;6.992;2022-11-02T20:16:34;12.50;99.90
19483;DHT22;9882;51.166;6.992;2022-11-02T20:19:03;12.40;99.90
19483;DHT22;9882;51.166;6.992;2022-11-02T20:21:34;12.40;99.90
19483;DHT22;9882;51.166;6.992;2022-11-02T20:24:06;12.40;99.90
19483;DHT22;9882;51.166;6.992;2022-11-02T20:26:36;12.50;99.90
19483;DHT22;9882;51.166;6.992;2022-11-02T20:29:05;12.60;99.90
19483;DHT22;9882;51.166;6.992;2022-11-02T20:31:36;12.50;99.90
19483;DHT22;9882;51.166;6.992;2022-11-02T20:34:06;12.40;99.90
19483;DHT22;9882;51.166;6.992;2022-11-02T20:36:36;12.50;99.90
19483;DHT22;9882;51.166;6.992;2022-11-02T20:39:05;12.20;99.90
19483;DHT22;9882;51.166;6.992;2022-11-02T20:41:34;12.30;99.90
19483;DHT22;9882;51.166;6.992;2022-11-02T20:44:03;12.40;99.90
19483;DHT22;9882;51.166;6.992;2022-11-02T20:46:32;12.30;99.90
19483;DHT22;9882;51.166;6.992;2022-11-02T20:49:05;12.30;99.90
19483;DHT22;9882;51.166;6.992;2022-11-02T20:51:36;12.30;99.90
19483;DHT22;9882;51.166;6.992;2022-11-02T20:54:04;12.40;99.90
19483;DHT22;9882;51.166;6.992;2022-11-02T20:56:44;12.30;99.90
19483;DHT22;9882;51.166;6.992;2022-11-02T20:59:14;12.30;99.90
19483;DHT22;9882;51.166;6.992;2022-11-02T21:01:42;12.30;99.90
19483;DHT22;9882;51.166;6.992;2022-11-02T21:04:11;12.20;99.90
19483;DHT22;9882;51.166;6.992;2022-11-02T21:06:46;12.20;99.90
19483;DHT22;9882;51.166;6.992;2022-11-02T21:09:25;12.30;99.90
19483;DHT22;9882;51.166;6.992;2022-11-02T21:11:53;12.30;99.90
19483;DHT22;9882;51.166;6.992;2022-11-02T21:14:39;12.10;99.90
19483;DHT22;9882;51.166;6.992;2022-11-02T21:17:07;12.10;99.90
19483;DHT22;9882;51.166;6.992;2022-11-02T21:19:36;12.20;99.90
19483;DHT22;9882;51.166;6.992;2022-11-02T21:22:06;12.10;99.90
19483;DHT22;9882;51.166;6.992;2022-11-02T21:24:34;12.20;99.90
19483;DHT22;9882;51.166;6.992;2022-11-02T21:27:03;12.10;99.90
19483;DHT22;9882;51.166;6.992;2022-11-02T21:29:34;12.10;99.90
19483;DHT22;9882;51.166;6.992;2022-11-02T21:32:03;12.10;99.90
19483;DHT22;9882;51.166;6.992;2022-11-02T21:34:32;12.00;99.90
19483;DHT22;9882;51.166;6.992;2022-11-02T21:37:00;12.10;99.90